sensor_id;sensor_type;location;lat;lon;timestamp;P1;durP1;ratioP1;P2;durP2;ratioP2
74967;SDS011;63523;51.880;12.630;2023-04-15T00:01:58;6.55;;;2.20;;
74967;SDS011;63523;51.880;12.630;2023-04-15T00:04:24;8.47;;;2.20;;
74967;SDS011;63523;51.880;12.630;2023-04-15T00:06:50;5.72;;;2.13;;
74967;SDS011;63523;51.880;12.630;2023-04-15T00:09:19;6.45;;;2.10;;
74967;SDS011;63523;51.880;12.630;2023-04-15T00:11:45;6.13;;;2.23;;
74967;SDS011;63523;51.880;12.630;2023-04-15T00:14:12;6.63;;;2.28;;
74967;SDS011;63523;51.880;12.630;2023-04-15T00:16:37;6.50;;;2.30;;
74967;SDS011;63523;51.880;12.630;2023-04-15T00:19:03;6.40;;;2.57;;
74967;SDS011;63523;51.880;12.630;2023-04-15T00:21:29;6.82;;;2.40;;
74967;SDS011;63523;51.880;12.630;2023-04-15T00:23:55;7.20;;;2.23;;
74967;SDS011;63523;51.880;12.630;2023-04-15T00:26:20;6.43;;;2.53;;
74967;SDS011;63523;51.880;12.630;2023-04-15T00:28:46;7.27;;;2.73;;
74967;SDS011;63523;51.880;12.630;2023-04-15T00:31:11;6.22;;;2.40;;
74967;SDS011;63523;51.880;12.630;2023-04-15T00:33:37;6.20;;;2.23;;
74967;SDS011;63523;51.880;12.630;2023-04-15T00:36:03;6.60;;;2.30;;
74967;SDS011;63523;51.880;12.630;2023-04-15T00:38:30;7.22;;;2.50;;
74967;SDS011;63523;51.880;12.630;2023-04-15T00:40:55;6.03;;;2.00;;
74967;SDS011;63523;51.880;12.630;2023-04-15T00:43:21;6.00;;;1.98;;
74967;SDS011;63523;51.880;12.630;2023-04-15T00:45:46;6.07;;;2.13;;
74967;SDS011;63523;51.880;12.630;2023-04-15T00:48:12;6.57;;;2.50;;
74967;SDS011;63523;51.880;12.630;2023-04-15T00:50:38;6.63;;;2.30;;
74967;SDS011;63523;51.880;12.630;2023-04-15T00:53:03;7.07;;;2.10;;
74967;SDS011;63523;51.880;12.630;2023-04-15T00:55:29;5.53;;;1.83;;
74967;SDS011;63523;51.880;12.630;2023-04-15T00:57:55;5.07;;;2.00;;
74967;SDS011;63523;51.880;12.630;2023-04-15T01:00:21;6.63;;;2.25;;
74967;SDS011;63523;51.880;12.630;2023-04-15T01:02:47;7.32;;;1.92;;
74967;SDS011;63523;51.880;12.630;2023-04-15T01:05:14;5.85;;;1.85;;
74967;SDS011;63523;51.880;12.630;2023-04-15T01:07:42;5.75;;;1.85;;
74967;SDS011;63523;51.880;12.630;2023-04-15T01:10:08;6.50;;;2.20;;
74967;SDS011;63523;51.880;12.630;2023-04-15T01:12:34;5.85;;;2.15;;
74967;SDS011;63523;51.880;12.630;2023-04-15T01:15:01;5.53;;;1.80;;
74967;SDS011;63523;51.880;12.630;2023-04-15T01:17:26;5.97;;;1.90;;
74967;SDS011;63523;51.880;12.630;2023-04-15T01:19:52;6.47;;;2.10;;
74967;SDS011;63523;51.880;12.630;2023-04-15T01:22:20;5.88;;;2.00;;
74967;SDS011;63523;51.880;12.630;2023-04-15T01:24:48;6.22;;;2.10;;
74967;SDS011;63523;51.880;12.630;2023-04-15T01:27:20;6.33;;;2.33;;
74967;SDS011;63523;51.880;12.630;2023-04-15T01:29:46;7.25;;;2.13;;
74967;SDS011;63523;51.880;12.630;2023-04-15T01:32:12;6.03;;;2.33;;
74967;SDS011;63523;51.880;12.630;2023-04-15T01:34:37;6.55;;;2.58;;
74967;SDS011;63523;51.880;12.630;2023-04-15T01:37:03;8.27;;;2.83;;
74967;SDS011;63523;51.880;12.630;2023-04-15T01:39:29;6.93;;;2.60;;
74967;SDS011;63523;51.880;12.630;2023-04-15T01:41:54;5.70;;;2.10;;
74967;SDS011;63523;51.880;12.630;2023-04-15T01:44:21;6.93;;;2.50;;
74967;SDS011;63523;51.880;12.630;2023-04-15T01:46:46;6.37;;;2.37;;
74967;SDS011;63523;51.880;12.630;2023-04-15T01:49:12;6.73;;;2.50;;
74967;SDS011;63523;51.880;12.630;2023-04-15T01:51:37;6.45;;;2.50;;
74967;SDS011;63523;51.880;12.630;2023-04-15T01:54:03;5.97;;;2.30;;
74967;SDS011;63523;51.880;12.630;2023-04-15T01:56:28;7.33;;;3.00;;
74967;SDS011;63523;51.880;12.630;2023-04-15T01:58:54;6.80;;;2.53;;
74967;SDS011;63523;51.880;12.630;2023-04-15T02:01:19;7.47;;;2.78;;
74967;SDS011;63523;51.880;12.630;2023-04-15T02:03:46;7.03;;;2.60;;
74967;SDS011;63523;51.880;12.630;2023-04-15T02:06:11;7.37;;;3.00;;
74967;SDS011;63523;51.880;12.630;2023-04-15T02:08:37;7.50;;;2.70;;
74967;SDS011;63523;51.880;12.630;2023-04-15T02:11:03;8.40;;;2.80;;
74967;SDS011;63523;51.880;12.630;2023-04-15T02:13:28;6.87;;;2.73;;
74967;SDS011;63523;51.880;12.630;2023-04-15T02:16:00;7.28;;;2.70;;
74967;SDS011;63523;51.880;12.630;2023-04-15T02:18:25;7.03;;;2.70;;
74967;SDS011;63523;51.880;12.630;2023-04-15T02:20:51;7.50;;;2.92;;
74967;SDS011;63523;51.880;12.630;2023-04-15T02:23:16;8.50;;;2.87;;
74967;SDS011;63523;51.880;12.630;2023-04-15T02:25:42;8.20;;;3.23;;
74967;SDS011;63523;51.880;12.630;2023-04-15T02:28:07;8.02;;;3.25;;
74967;SDS011;63523;51.880;12.630;2023-04-15T02:30:33;8.00;;;2.83;;
74967;SDS011;63523;51.880;12.630;2023-04-15T02:32:59;8.70;;;3.27;;
74967;SDS011;63523;51.880;12.630;2023-04-15T02:35:25;8.65;;;3.53;;
74967;SDS011;63523;51.880;12.630;2023-04-15T02:37:51;9.32;;;3.80;;
74967;SDS011;63523;51.880;12.630;2023-04-15T02:40:16;8.43;;;3.57;;
74967;SDS011;63523;51.880;12.630;2023-04-15T02:42:42;9.10;;;3.40;;
74967;SDS011;63523;51.880;12.630;2023-04-15T02:45:08;8.37;;;3.37;;
74967;SDS011;63523;51.880;12.630;2023-04-15T02:47:36;9.02;;;3.72;;
74967;SDS011;63523;51.880;12.630;2023-04-15T02:50:06;9.15;;;3.60;;
74967;SDS011;63523;51.880;12.630;2023-04-15T02:52:33;9.98;;;3.83;;
74967;SDS011;63523;51.880;12.630;2023-04-15T02:54:58;9.60;;;3.77;;
74967;SDS011;63523;51.880;12.630;2023-04-15T02:57:26;9.35;;;3.75;;
74967;SDS011;63523;51.880;12.630;2023-04-15T02:59:53;9.70;;;3.97;;
74967;SDS011;63523;51.880;12.630;2023-04-15T03:02:18;11.32;;;4.13;;
74967;SDS011;63523;51.880;12.630;2023-04-15T03:04:44;12.80;;;4.70;;
74967;SDS011;63523;51.880;12.630;2023-04-15T03:07:10;10.55;;;4.47;;
74967;SDS011;63523;51.880;12.630;2023-04-15T03:09:35;8.90;;;3.80;;
74967;SDS011;63523;51.880;12.630;2023-04-15T03:12:01;10.80;;;4.10;;
74967;SDS011;63523;51.880;12.630;2023-04-15T03:14:27;9.57;;;3.80;;
74967;SDS011;63523;51.880;12.630;2023-04-15T03:16:54;10.13;;;4.00;;
74967;SDS011;63523;51.880;12.630;2023-04-15T03:19:20;9.85;;;3.90;;
74967;SDS011;63523;51.880;12.630;2023-04-15T03:21:49;10.68;;;4.18;;
74967;SDS011;63523;51.880;12.630;2023-04-15T03:24:16;9.68;;;4.38;;
74967;SDS011;63523;51.880;12.630;2023-04-15T03:26:42;12.47;;;4.53;;
74967;SDS011;63523;51.880;12.630;2023-04-15T03:29:07;11.35;;;4.32;;
74967;SDS011;63523;51.880;12.630;2023-04-15T03:31:33;11.77;;;4.70;;
74967;SDS011;63523;51.880;12.630;2023-04-15T03:33:58;10.67;;;4.43;;
74967;SDS011;63523;51.880;12.630;2023-04-15T03:36:24;9.93;;;4.03;;
74967;SDS011;63523;51.880;12.630;2023-04-15T03:38:50;11.82;;;4.65;;
74967;SDS011;63523;51.880;12.630;2023-04-15T03:41:15;12.47;;;4.40;;
74967;SDS011;63523;51.880;12.630;2023-04-15T03:43:41;13.00;;;5.03;;
74967;SDS011;63523;51.880;12.630;2023-04-15T03:46:06;12.48;;;5.03;;
74967;SDS011;63523;51.880;12.630;2023-04-15T03:48:32;13.10;;;5.23;;
74967;SDS011;63523;51.880;12.630;2023-04-15T03:50:57;11.23;;;4.77;;
74967;SDS011;63523;51.880;12.630;2023-04-15T03:53:23;11.38;;;4.85;;
74967;SDS011;63523;51.880;12.630;2023-04-15T03:55:48;17.60;;;6.50;;
74967;SDS011;63523;51.880;12.630;2023-04-15T03:58:14;14.90;;;5.43;;
74967;SDS011;63523;51.880;12.630;2023-04-15T04:00:39;12.07;;;5.07;;
74967;SDS011;63523;51.880;12.630;2023-04-15T04:03:05;12.10;;;4.80;;
74967;SDS011;63523;51.880;12.630;2023-04-15T04:05:31;11.83;;;4.60;;
74967;SDS011;63523;51.880;12.630;2023-04-15T04:07:56;11.75;;;4.75;;
74967;SDS011;63523;51.880;12.630;2023-04-15T04:10:22;11.03;;;4.87;;
74967;SDS011;63523;51.880;12.630;2023-04-15T04:12:47;11.37;;;4.90;;
74967;SDS011;63523;51.880;12.630;2023-04-15T04:15:13;14.30;;;5.53;;
74967;SDS011;63523;51.880;12.630;2023-04-15T04:17:38;14.17;;;5.73;;
74967;SDS011;63523;51.880;12.630;2023-04-15T04:20:04;13.48;;;5.63;;
74967;SDS011;63523;51.880;12.630;2023-04-15T04:22:30;12.85;;;5.50;;
74967;SDS011;63523;51.880;12.630;2023-04-15T04:25:00;16.67;;;6.70;;
74967;SDS011;63523;51.880;12.630;2023-04-15T04:27:26;20.75;;;7.70;;
74967;SDS011;63523;51.880;12.630;2023-04-15T04:29:52;18.03;;;6.93;;
74967;SDS011;63523;51.880;12.630;2023-04-15T04:32:17;21.57;;;7.70;;
74967;SDS011;63523;51.880;12.630;2023-04-15T04:34:43;22.63;;;8.27;;
74967;SDS011;63523;51.880;12.630;2023-04-15T04:37:08;24.70;;;7.97;;
74967;SDS011;63523;51.880;12.630;2023-04-15T04:39:34;25.30;;;8.50;;
74967;SDS011;63523;51.880;12.630;2023-04-15T04:41:59;30.15;;;8.88;;
74967;SDS011;63523;51.880;12.630;2023-04-15T04:44:25;29.73;;;9.20;;
74967;SDS011;63523;51.880;12.630;2023-04-15T04:46:51;31.88;;;9.68;;
74967;SDS011;63523;51.880;12.630;2023-04-15T04:49:16;31.93;;;10.23;;
74967;SDS011;63523;51.880;12.630;2023-04-15T04:51:42;36.07;;;10.73;;
74967;SDS011;63523;51.880;12.630;2023-04-15T04:54:07;37.67;;;10.98;;
74967;SDS011;63523;51.880;12.630;2023-04-15T04:56:33;40.53;;;11.37;;
74967;SDS011;63523;51.880;12.630;2023-04-15T04:58:59;43.65;;;11.65;;
74967;SDS011;63523;51.880;12.630;2023-04-15T05:01:25;40.00;;;11.15;;
74967;SDS011;63523;51.880;12.630;2023-04-15T05:03:51;39.67;;;12.23;;
74967;SDS011;63523;51.880;12.630;2023-04-15T05:06:17;47.78;;;12.38;;
74967;SDS011;63523;51.880;12.630;2023-04-15T05:08:42;44.90;;;13.23;;
74967;SDS011;63523;51.880;12.630;2023-04-15T05:11:08;49.05;;;12.73;;
74967;SDS011;63523;51.880;12.630;2023-04-15T05:13:33;45.73;;;13.00;;
74967;SDS011;63523;51.880;12.630;2023-04-15T05:16:02;53.17;;;14.20;;
74967;SDS011;63523;51.880;12.630;2023-04-15T05:18:31;55.50;;;14.50;;
74967;SDS011;63523;51.880;12.630;2023-04-15T05:20:57;56.07;;;15.20;;
74967;SDS011;63523;51.880;12.630;2023-04-15T05:23:23;55.15;;;15.25;;
74967;SDS011;63523;51.880;12.630;2023-04-15T05:25:49;64.00;;;15.57;;
74967;SDS011;63523;51.880;12.630;2023-04-15T05:28:14;59.47;;;15.77;;
74967;SDS011;63523;51.880;12.630;2023-04-15T05:30:40;61.93;;;15.20;;
74967;SDS011;63523;51.880;12.630;2023-04-15T05:33:06;57.60;;;15.75;;
74967;SDS011;63523;51.880;12.630;2023-04-15T05:35:31;53.17;;;14.80;;
74967;SDS011;63523;51.880;12.630;2023-04-15T05:37:57;47.70;;;14.47;;
74967;SDS011;63523;51.880;12.630;2023-04-15T05:40:22;55.65;;;15.13;;
74967;SDS011;63523;51.880;12.630;2023-04-15T05:42:48;58.70;;;15.60;;
74967;SDS011;63523;51.880;12.630;2023-04-15T05:45:13;63.55;;;16.83;;
74967;SDS011;63523;51.880;12.630;2023-04-15T05:47:39;60.93;;;16.97;;
74967;SDS011;63523;51.880;12.630;2023-04-15T05:50:04;58.07;;;16.90;;
74967;SDS011;63523;51.880;12.630;2023-04-15T05:52:30;63.80;;;16.95;;
74967;SDS011;63523;51.880;12.630;2023-04-15T05:54:56;70.80;;;17.97;;
74967;SDS011;63523;51.880;12.630;2023-04-15T05:57:22;71.60;;;19.13;;
74967;SDS011;63523;51.880;12.630;2023-04-15T05:59:47;73.60;;;20.53;;
74967;SDS011;63523;51.880;12.630;2023-04-15T06:02:13;65.28;;;18.42;;
74967;SDS011;63523;51.880;12.630;2023-04-15T06:04:39;61.83;;;18.52;;
74967;SDS011;63523;51.880;12.630;2023-04-15T06:07:04;67.00;;;19.23;;
74967;SDS011;63523;51.880;12.630;2023-04-15T06:09:30;72.00;;;19.92;;
74967;SDS011;63523;51.880;12.630;2023-04-15T06:11:56;73.67;;;21.03;;
74967;SDS011;63523;51.880;12.630;2023-04-15T06:14:23;72.22;;;19.92;;
74967;SDS011;63523;51.880;12.630;2023-04-15T06:16:48;73.80;;;20.90;;
74967;SDS011;63523;51.880;12.630;2023-04-15T06:19:14;67.57;;;20.23;;
74967;SDS011;63523;51.880;12.630;2023-04-15T06:21:39;72.22;;;21.33;;
74967;SDS011;63523;51.880;12.630;2023-04-15T06:24:05;78.25;;;21.63;;
74967;SDS011;63523;51.880;12.630;2023-04-15T06:26:31;74.33;;;21.87;;
74967;SDS011;63523;51.880;12.630;2023-04-15T06:28:57;83.38;;;21.95;;
74967;SDS011;63523;51.880;12.630;2023-04-15T06:31:22;81.00;;;22.93;;
74967;SDS011;63523;51.880;12.630;2023-04-15T06:33:48;85.78;;;23.10;;
74967;SDS011;63523;51.880;12.630;2023-04-15T06:36:14;75.23;;;22.77;;
74967;SDS011;63523;51.880;12.630;2023-04-15T06:38:39;73.57;;;22.30;;
74967;SDS011;63523;51.880;12.630;2023-04-15T06:41:04;77.63;;;24.00;;
74967;SDS011;63523;51.880;12.630;2023-04-15T06:43:30;78.03;;;23.40;;
74967;SDS011;63523;51.880;12.630;2023-04-15T06:45:56;75.87;;;23.20;;
74967;SDS011;63523;51.880;12.630;2023-04-15T06:48:22;75.53;;;24.08;;
74967;SDS011;63523;51.880;12.630;2023-04-15T06:50:48;76.32;;;23.85;;
74967;SDS011;63523;51.880;12.630;2023-04-15T06:53:14;75.83;;;24.30;;
74967;SDS011;63523;51.880;12.630;2023-04-15T06:55:39;74.30;;;24.15;;
74967;SDS011;63523;51.880;12.630;2023-04-15T06:58:05;74.05;;;24.42;;
74967;SDS011;63523;51.880;12.630;2023-04-15T07:00:31;69.80;;;24.07;;
74967;SDS011;63523;51.880;12.630;2023-04-15T07:02:58;75.15;;;23.85;;
74967;SDS011;63523;51.880;12.630;2023-04-15T07:05:27;75.13;;;24.05;;
74967;SDS011;63523;51.880;12.630;2023-04-15T07:07:53;70.35;;;24.90;;
74967;SDS011;63523;51.880;12.630;2023-04-15T07:10:19;68.83;;;24.07;;
74967;SDS011;63523;51.880;12.630;2023-04-15T07:12:44;73.38;;;24.35;;
74967;SDS011;63523;51.880;12.630;2023-04-15T07:15:10;76.30;;;24.80;;
74967;SDS011;63523;51.880;12.630;2023-04-15T07:17:36;72.10;;;25.05;;
74967;SDS011;63523;51.880;12.630;2023-04-15T07:20:02;75.22;;;24.83;;
74967;SDS011;63523;51.880;12.630;2023-04-15T07:22:29;68.70;;;24.38;;
74967;SDS011;63523;51.880;12.630;2023-04-15T07:24:54;68.80;;;24.03;;
74967;SDS011;63523;51.880;12.630;2023-04-15T07:27:20;64.40;;;23.00;;
74967;SDS011;63523;51.880;12.630;2023-04-15T07:29:45;65.23;;;23.33;;
74967;SDS011;63523;51.880;12.630;2023-04-15T07:32:10;67.47;;;24.52;;
74967;SDS011;63523;51.880;12.630;2023-04-15T07:34:36;67.10;;;24.73;;
74967;SDS011;63523;51.880;12.630;2023-04-15T07:37:02;60.40;;;23.93;;
74967;SDS011;63523;51.880;12.630;2023-04-15T07:39:27;60.70;;;23.98;;
74967;SDS011;63523;51.880;12.630;2023-04-15T07:41:54;62.50;;;24.38;;
74967;SDS011;63523;51.880;12.630;2023-04-15T07:44:20;65.57;;;24.87;;
74967;SDS011;63523;51.880;12.630;2023-04-15T07:46:46;68.43;;;25.70;;
74967;SDS011;63523;51.880;12.630;2023-04-15T07:49:11;61.00;;;23.42;;
74967;SDS011;63523;51.880;12.630;2023-04-15T07:51:37;61.70;;;24.47;;
74967;SDS011;63523;51.880;12.630;2023-04-15T07:54:03;59.53;;;23.47;;
74967;SDS011;63523;51.880;12.630;2023-04-15T07:56:28;59.45;;;23.48;;
74967;SDS011;63523;51.880;12.630;2023-04-15T07:58:54;57.77;;;23.73;;
74967;SDS011;63523;51.880;12.630;2023-04-15T08:01:19;59.10;;;24.13;;
74967;SDS011;63523;51.880;12.630;2023-04-15T08:03:45;56.40;;;23.17;;
74967;SDS011;63523;51.880;12.630;2023-04-15T08:06:11;56.10;;;22.70;;
74967;SDS011;63523;51.880;12.630;2023-04-15T08:08:36;54.40;;;23.52;;
74967;SDS011;63523;51.880;12.630;2023-04-15T08:11:02;52.43;;;22.33;;
74967;SDS011;63523;51.880;12.630;2023-04-15T08:13:27;55.77;;;22.63;;
74967;SDS011;63523;51.880;12.630;2023-04-15T08:18:57;47.92;;;22.15;;
74967;SDS011;63523;51.880;12.630;2023-04-15T08:21:23;49.90;;;22.33;;
74967;SDS011;63523;51.880;12.630;2023-04-15T08:23:50;46.20;;;20.95;;
74967;SDS011;63523;51.880;12.630;2023-04-15T08:26:16;48.78;;;21.38;;
74967;SDS011;63523;51.880;12.630;2023-04-15T08:28:43;44.20;;;20.90;;
74967;SDS011;63523;51.880;12.630;2023-04-15T08:31:09;41.40;;;20.00;;
74967;SDS011;63523;51.880;12.630;2023-04-15T08:33:35;44.30;;;20.52;;
74967;SDS011;63523;51.880;12.630;2023-04-15T08:36:01;43.43;;;20.87;;
74967;SDS011;63523;51.880;12.630;2023-04-15T08:38:26;42.70;;;20.38;;
74967;SDS011;63523;51.880;12.630;2023-04-15T08:40:52;40.90;;;20.40;;
74967;SDS011;63523;51.880;12.630;2023-04-15T08:43:20;43.47;;;20.63;;
74967;SDS011;63523;51.880;12.630;2023-04-15T08:45:51;41.08;;;20.08;;
74967;SDS011;63523;51.880;12.630;2023-04-15T08:48:17;41.53;;;20.08;;
74967;SDS011;63523;51.880;12.630;2023-04-15T08:50:44;38.97;;;19.50;;
74967;SDS011;63523;51.880;12.630;2023-04-15T08:53:10;36.28;;;18.55;;
74967;SDS011;63523;51.880;12.630;2023-04-15T08:55:39;35.63;;;18.40;;
74967;SDS011;63523;51.880;12.630;2023-04-15T08:58:11;37.15;;;18.48;;
74967;SDS011;63523;51.880;12.630;2023-04-15T09:00:38;38.17;;;19.08;;
74967;SDS011;63523;51.880;12.630;2023-04-15T09:03:05;36.83;;;19.23;;
74967;SDS011;63523;51.880;12.630;2023-04-15T09:05:32;38.17;;;19.00;;
74967;SDS011;63523;51.880;12.630;2023-04-15T09:07:58;34.33;;;17.88;;
74967;SDS011;63523;51.880;12.630;2023-04-15T09:10:25;34.88;;;17.35;;
74967;SDS011;63523;51.880;12.630;2023-04-15T09:12:50;30.80;;;17.50;;
74967;SDS011;63523;51.880;12.630;2023-04-15T09:15:16;30.10;;;16.35;;
74967;SDS011;63523;51.880;12.630;2023-04-15T09:17:44;34.23;;;17.80;;
74967;SDS011;63523;51.880;12.630;2023-04-15T09:20:11;31.35;;;16.88;;
74967;SDS011;63523;51.880;12.630;2023-04-15T09:22:44;31.70;;;16.75;;
74967;SDS011;63523;51.880;12.630;2023-04-15T09:27:52;30.57;;;16.30;;
74967;SDS011;63523;51.880;12.630;2023-04-15T09:30:24;33.60;;;17.30;;
74967;SDS011;63523;51.880;12.630;2023-04-15T09:32:54;31.17;;;17.55;;
74967;SDS011;63523;51.880;12.630;2023-04-15T09:35:24;34.65;;;17.92;;
74967;SDS011;63523;51.880;12.630;2023-04-15T09:37:51;35.70;;;17.77;;
74967;SDS011;63523;51.880;12.630;2023-04-15T09:40:30;33.17;;;17.40;;
74967;SDS011;63523;51.880;12.630;2023-04-15T09:43:04;36.15;;;17.48;;
74967;SDS011;63523;51.880;12.630;2023-04-15T09:45:30;31.27;;;16.35;;
74967;SDS011;63523;51.880;12.630;2023-04-15T09:47:57;31.45;;;16.80;;
74967;SDS011;63523;51.880;12.630;2023-04-15T09:50:27;30.60;;;16.77;;
74967;SDS011;63523;51.880;12.630;2023-04-15T09:52:53;32.87;;;17.87;;
74967;SDS011;63523;51.880;12.630;2023-04-15T09:55:22;30.63;;;16.77;;
74967;SDS011;63523;51.880;12.630;2023-04-15T09:57:48;30.13;;;16.30;;
74967;SDS011;63523;51.880;12.630;2023-04-15T10:00:14;30.17;;;16.13;;
74967;SDS011;63523;51.880;12.630;2023-04-15T10:02:40;31.38;;;17.05;;
74967;SDS011;63523;51.880;12.630;2023-04-15T10:05:06;30.38;;;16.30;;
74967;SDS011;63523;51.880;12.630;2023-04-15T10:07:36;28.88;;;16.55;;
74967;SDS011;63523;51.880;12.630;2023-04-15T10:10:02;29.20;;;15.18;;
74967;SDS011;63523;51.880;12.630;2023-04-15T10:12:29;28.77;;;15.67;;
74967;SDS011;63523;51.880;12.630;2023-04-15T10:14:58;27.02;;;15.38;;
74967;SDS011;63523;51.880;12.630;2023-04-15T10:17:28;27.52;;;15.20;;
74967;SDS011;63523;51.880;12.630;2023-04-15T10:19:59;29.88;;;15.77;;
74967;SDS011;63523;51.880;12.630;2023-04-15T10:22:29;29.98;;;15.93;;
74967;SDS011;63523;51.880;12.630;2023-04-15T10:24:55;28.07;;;15.27;;
74967;SDS011;63523;51.880;12.630;2023-04-15T10:27:22;29.60;;;16.35;;
74967;SDS011;63523;51.880;12.630;2023-04-15T10:29:49;30.02;;;16.30;;
74967;SDS011;63523;51.880;12.630;2023-04-15T10:32:17;28.88;;;15.88;;
74967;SDS011;63523;51.880;12.630;2023-04-15T10:34:44;31.15;;;16.52;;
74967;SDS011;63523;51.880;12.630;2023-04-15T10:37:11;31.70;;;17.40;;
74967;SDS011;63523;51.880;12.630;2023-04-15T10:39:37;37.08;;;17.77;;
74967;SDS011;63523;51.880;12.630;2023-04-15T10:42:06;33.83;;;17.20;;
74967;SDS011;63523;51.880;12.630;2023-04-15T10:44:34;35.55;;;17.38;;
74967;SDS011;63523;51.880;12.630;2023-04-15T10:47:03;35.45;;;17.15;;
74967;SDS011;63523;51.880;12.630;2023-04-15T10:49:31;35.20;;;17.52;;
74967;SDS011;63523;51.880;12.630;2023-04-15T10:51:57;33.87;;;17.53;;
74967;SDS011;63523;51.880;12.630;2023-04-15T10:57:08;33.07;;;16.33;;
74967;SDS011;63523;51.880;12.630;2023-04-15T10:59:58;33.25;;;16.20;;
74967;SDS011;63523;51.880;12.630;2023-04-15T11:08:07;33.83;;;17.43;;
74967;SDS011;63523;51.880;12.630;2023-04-15T11:13:00;28.83;;;15.07;;
74967;SDS011;63523;51.880;12.630;2023-04-15T11:15:28;32.35;;;16.48;;
74967;SDS011;63523;51.880;12.630;2023-04-15T11:17:58;32.10;;;15.88;;
74967;SDS011;63523;51.880;12.630;2023-04-15T11:20:36;27.98;;;14.73;;
74967;SDS011;63523;51.880;12.630;2023-04-15T11:23:02;26.98;;;13.82;;
74967;SDS011;63523;51.880;12.630;2023-04-15T11:25:29;25.57;;;13.47;;
74967;SDS011;63523;51.880;12.630;2023-04-15T11:27:57;23.92;;;13.50;;
74967;SDS011;63523;51.880;12.630;2023-04-15T11:30:25;24.63;;;13.43;;
74967;SDS011;63523;51.880;12.630;2023-04-15T11:32:59;24.98;;;12.55;;
74967;SDS011;63523;51.880;12.630;2023-04-15T11:35:26;23.63;;;12.40;;
74967;SDS011;63523;51.880;12.630;2023-04-15T11:37:52;22.27;;;12.70;;
74967;SDS011;63523;51.880;12.630;2023-04-15T11:40:22;23.20;;;12.27;;
74967;SDS011;63523;51.880;12.630;2023-04-15T11:43:03;24.45;;;12.45;;
74967;SDS011;63523;51.880;12.630;2023-04-15T11:45:29;22.23;;;12.38;;
74967;SDS011;63523;51.880;12.630;2023-04-15T11:47:59;25.50;;;12.80;;
74967;SDS011;63523;51.880;12.630;2023-04-15T11:50:29;23.65;;;13.00;;
74967;SDS011;63523;51.880;12.630;2023-04-15T11:52:55;24.60;;;12.83;;
74967;SDS011;63523;51.880;12.630;2023-04-15T11:55:23;25.83;;;12.75;;
74967;SDS011;63523;51.880;12.630;2023-04-15T11:57:49;25.35;;;12.88;;
74967;SDS011;63523;51.880;12.630;2023-04-15T12:00:15;26.45;;;13.52;;
74967;SDS011;63523;51.880;12.630;2023-04-15T12:02:41;26.80;;;13.37;;
74967;SDS011;63523;51.880;12.630;2023-04-15T12:05:08;26.20;;;13.07;;
74967;SDS011;63523;51.880;12.630;2023-04-15T12:10:24;20.60;;;11.30;;
74967;SDS011;63523;51.880;12.630;2023-04-15T12:12:51;22.47;;;12.13;;
74967;SDS011;63523;51.880;12.630;2023-04-15T12:15:18;22.30;;;11.90;;
74967;SDS011;63523;51.880;12.630;2023-04-15T12:17:47;19.98;;;11.23;;
74967;SDS011;63523;51.880;12.630;2023-04-15T12:20:12;21.90;;;11.40;;
74967;SDS011;63523;51.880;12.630;2023-04-15T12:22:38;23.47;;;12.67;;
74967;SDS011;63523;51.880;12.630;2023-04-15T12:25:03;21.13;;;11.47;;
74967;SDS011;63523;51.880;12.630;2023-04-15T12:27:30;20.57;;;11.63;;
74967;SDS011;63523;51.880;12.630;2023-04-15T12:30:03;24.25;;;12.20;;
74967;SDS011;63523;51.880;12.630;2023-04-15T12:32:29;21.70;;;11.63;;
74967;SDS011;63523;51.880;12.630;2023-04-15T12:34:59;19.77;;;10.77;;
74967;SDS011;63523;51.880;12.630;2023-04-15T12:37:25;21.00;;;11.40;;
74967;SDS011;63523;51.880;12.630;2023-04-15T12:39:51;22.98;;;11.60;;
74967;SDS011;63523;51.880;12.630;2023-04-15T12:42:18;23.30;;;11.27;;
74967;SDS011;63523;51.880;12.630;2023-04-15T12:44:44;25.48;;;12.60;;
74967;SDS011;63523;51.880;12.630;2023-04-15T12:47:10;20.30;;;10.93;;
74967;SDS011;63523;51.880;12.630;2023-04-15T12:49:36;22.33;;;12.65;;
74967;SDS011;63523;51.880;12.630;2023-04-15T12:52:03;23.75;;;11.98;;
74967;SDS011;63523;51.880;12.630;2023-04-15T12:54:29;21.13;;;11.50;;
74967;SDS011;63523;51.880;12.630;2023-04-15T12:56:55;18.13;;;10.23;;
74967;SDS011;63523;51.880;12.630;2023-04-15T12:59:22;19.55;;;10.60;;
74967;SDS011;63523;51.880;12.630;2023-04-15T13:01:50;18.67;;;10.30;;
74967;SDS011;63523;51.880;12.630;2023-04-15T13:04:17;17.08;;;9.75;;
74967;SDS011;63523;51.880;12.630;2023-04-15T13:06:43;18.92;;;10.07;;
74967;SDS011;63523;51.880;12.630;2023-04-15T13:09:09;18.43;;;9.63;;
74967;SDS011;63523;51.880;12.630;2023-04-15T13:11:35;17.40;;;9.52;;
74967;SDS011;63523;51.880;12.630;2023-04-15T13:14:01;17.57;;;9.03;;
74967;SDS011;63523;51.880;12.630;2023-04-15T13:16:28;17.40;;;9.63;;
74967;SDS011;63523;51.880;12.630;2023-04-15T13:18:54;17.88;;;9.48;;
74967;SDS011;63523;51.880;12.630;2023-04-15T13:21:19;17.67;;;9.10;;
74967;SDS011;63523;51.880;12.630;2023-04-15T13:23:45;13.07;;;7.73;;
74967;SDS011;63523;51.880;12.630;2023-04-15T13:26:11;14.23;;;7.75;;
74967;SDS011;63523;51.880;12.630;2023-04-15T13:28:37;13.30;;;7.37;;
74967;SDS011;63523;51.880;12.630;2023-04-15T13:31:02;14.93;;;8.23;;
74967;SDS011;63523;51.880;12.630;2023-04-15T13:33:29;15.88;;;7.72;;
74967;SDS011;63523;51.880;12.630;2023-04-15T13:35:55;14.80;;;7.70;;
74967;SDS011;63523;51.880;12.630;2023-04-15T13:38:20;15.85;;;7.88;;
74967;SDS011;63523;51.880;12.630;2023-04-15T13:40:47;12.88;;;7.40;;
74967;SDS011;63523;51.880;12.630;2023-04-15T13:43:12;15.63;;;7.97;;
74967;SDS011;63523;51.880;12.630;2023-04-15T13:45:37;16.00;;;8.50;;
74967;SDS011;63523;51.880;12.630;2023-04-15T13:48:03;15.52;;;8.23;;
74967;SDS011;63523;51.880;12.630;2023-04-15T13:50:29;15.90;;;8.67;;
74967;SDS011;63523;51.880;12.630;2023-04-15T13:52:54;12.40;;;7.17;;
74967;SDS011;63523;51.880;12.630;2023-04-15T13:55:20;12.77;;;7.43;;
74967;SDS011;63523;51.880;12.630;2023-04-15T13:57:45;11.23;;;6.33;;
74967;SDS011;63523;51.880;12.630;2023-04-15T14:00:11;13.25;;;7.47;;
74967;SDS011;63523;51.880;12.630;2023-04-15T14:02:38;13.60;;;7.10;;
74967;SDS011;63523;51.880;12.630;2023-04-15T14:05:05;11.68;;;6.47;;
74967;SDS011;63523;51.880;12.630;2023-04-15T14:07:31;13.45;;;6.82;;
74967;SDS011;63523;51.880;12.630;2023-04-15T14:09:57;11.70;;;6.33;;
74967;SDS011;63523;51.880;12.630;2023-04-15T14:12:22;11.27;;;6.63;;
74967;SDS011;63523;51.880;12.630;2023-04-15T14:14:48;12.05;;;6.70;;
74967;SDS011;63523;51.880;12.630;2023-04-15T14:17:13;10.40;;;6.03;;
74967;SDS011;63523;51.880;12.630;2023-04-15T14:19:39;11.00;;;6.60;;
74967;SDS011;63523;51.880;12.630;2023-04-15T14:22:05;11.80;;;6.50;;
74967;SDS011;63523;51.880;12.630;2023-04-15T14:24:30;12.33;;;6.53;;
74967;SDS011;63523;51.880;12.630;2023-04-15T14:26:56;13.02;;;6.80;;
74967;SDS011;63523;51.880;12.630;2023-04-15T14:29:22;12.87;;;7.20;;
74967;SDS011;63523;51.880;12.630;2023-04-15T14:31:47;13.82;;;7.55;;
74967;SDS011;63523;51.880;12.630;2023-04-15T14:34:14;13.55;;;7.25;;